createdAt,value
2023-11-21T00:00:02.135Z,7.30
2023-11-21T00:02:31.302Z,6.25
2023-11-21T00:04:58.595Z,8.05
2023-11-21T00:07:26.368Z,6.88
2023-11-21T00:09:53.744Z,7.07
2023-11-21T00:12:22.001Z,7.50
2023-11-21T00:14:49.107Z,5.95
2023-11-21T00:17:16.194Z,6.40
2023-11-21T00:19:44.263Z,6.85
2023-11-21T00:22:11.584Z,6.47
2023-11-21T00:24:38.963Z,6.25
2023-11-21T00:27:07.333Z,4.88
2023-11-21T00:29:34.478Z,5.80
2023-11-21T00:32:01.608Z,5.07
2023-11-21T00:34:29.160Z,4.10
2023-11-21T00:36:56.311Z,6.35
2023-11-21T00:39:23.395Z,5.32
2023-11-21T00:41:50.672Z,4.78
2023-11-21T00:44:17.809Z,4.00
2023-11-21T00:46:45.014Z,5.07
2023-11-21T00:49:12.183Z,5.35
2023-11-21T00:51:39.277Z,5.07
2023-11-21T00:54:08.185Z,4.82
2023-11-21T00:56:35.368Z,4.85
2023-11-21T00:59:02.464Z,5.03
2023-11-21T01:01:29.695Z,4.32
2023-11-21T01:03:56.831Z,4.88
2023-11-21T01:06:24.104Z,4.63
2023-11-21T01:08:51.327Z,4.95
2023-11-21T01:11:18.927Z,4.40
2023-11-21T01:13:46.350Z,5.32
2023-11-21T01:16:13.548Z,5.32
2023-11-21T01:18:41.474Z,4.85
2023-11-21T01:21:09.009Z,5.38
2023-11-21T01:23:36.430Z,5.05
2023-11-21T01:26:04.637Z,4.93
2023-11-21T01:28:31.797Z,5.78
2023-11-21T01:30:59.357Z,7.13
2023-11-21T01:33:27.122Z,6.18
2023-11-21T01:35:57.054Z,6.10
2023-11-21T01:38:24.250Z,5.75
2023-11-21T01:40:51.414Z,5.78
2023-11-21T01:43:19.414Z,4.50
2023-11-21T01:45:49.672Z,4.25
2023-11-21T01:48:18.081Z,4.30
2023-11-21T01:50:46.394Z,4.30
2023-11-21T01:53:14.798Z,4.40
2023-11-21T01:55:46.468Z,4.72
2023-11-21T01:58:14.042Z,4.10
2023-11-21T02:00:41.371Z,3.83
2023-11-21T02:03:08.810Z,4.40
2023-11-21T02:05:36.145Z,4.53
2023-11-21T02:08:04.583Z,3.65
2023-11-21T02:10:34.323Z,4.10
2023-11-21T02:13:04.408Z,3.47
2023-11-21T02:15:31.936Z,3.80
2023-11-21T02:18:00.345Z,4.22
2023-11-21T02:20:31.163Z,4.30
2023-11-21T02:22:59.876Z,4.35
2023-11-21T02:25:29.167Z,4.32
2023-11-21T02:28:00.268Z,4.95
2023-11-21T02:30:29.597Z,5.35
2023-11-21T02:32:58.615Z,5.10
2023-11-21T02:35:29.938Z,5.57
2023-11-21T02:37:57.095Z,4.93
2023-11-21T02:40:27.270Z,5.78
2023-11-21T02:42:54.519Z,6.32
2023-11-21T02:45:23.080Z,5.95
2023-11-21T02:47:52.014Z,5.70
2023-11-21T02:50:20.528Z,5.78
2023-11-21T02:52:47.876Z,6.10
2023-11-21T02:55:15.336Z,5.68
2023-11-21T02:57:47.704Z,6.88
2023-11-21T03:00:16.464Z,6.75
2023-11-21T03:02:45.167Z,6.68
2023-11-21T03:05:12.585Z,7.05
2023-11-21T03:07:41.649Z,7.30
2023-11-21T03:10:11.013Z,6.70
2023-11-21T03:12:41.488Z,6.80
2023-11-21T03:15:10.187Z,6.68
2023-11-21T03:17:38.469Z,6.10
2023-11-21T03:20:06.551Z,6.47
2023-11-21T03:22:34.455Z,6.70
2023-11-21T03:25:02.258Z,7.13
2023-11-21T03:27:29.391Z,5.78
2023-11-21T03:29:57.040Z,5.68
2023-11-21T03:32:25.095Z,5.80
2023-11-21T03:35:00.031Z,5.20
2023-11-21T03:37:29.453Z,4.97
2023-11-21T03:39:58.191Z,6.00
2023-11-21T03:42:28.220Z,5.80
2023-11-21T03:44:55.818Z,5.47
2023-11-21T03:47:23.100Z,6.20
2023-11-21T03:49:50.374Z,5.70
2023-11-21T03:52:18.352Z,6.32
2023-11-21T03:54:45.630Z,6.40
2023-11-21T03:57:13.639Z,6.25
2023-11-21T03:59:44.806Z,5.32
2023-11-21T04:02:12.159Z,5.85
2023-11-21T04:04:39.919Z,6.65
2023-11-21T04:07:07.026Z,5.10
2023-11-21T04:09:34.298Z,6.13
2023-11-21T04:12:01.435Z,5.32
2023-11-21T04:14:28.574Z,6.45
2023-11-21T04:16:55.888Z,6.80
2023-11-21T04:19:23.158Z,6.15
2023-11-21T04:21:52.551Z,6.45
2023-11-21T04:24:19.744Z,6.50
2023-11-21T04:26:46.834Z,5.60
2023-11-21T04:29:14.128Z,6.93
2023-11-21T04:31:41.363Z,5.70
2023-11-21T04:34:09.475Z,7.05
2023-11-21T04:36:36.576Z,6.47
2023-11-21T04:39:03.961Z,6.20
2023-11-21T04:41:33.136Z,6.95
2023-11-21T04:44:04.557Z,6.10
2023-11-21T04:46:31.700Z,6.15
2023-11-21T04:48:59.451Z,7.15
2023-11-21T04:51:26.550Z,6.68
2023-11-21T04:53:53.681Z,6.35
2023-11-21T04:56:20.815Z,6.65
2023-11-21T04:58:47.943Z,6.43
2023-11-21T05:01:15.085Z,7.03
2023-11-21T05:03:42.820Z,6.70
2023-11-21T05:06:13.083Z,6.35
2023-11-21T05:08:40.168Z,6.63
2023-11-21T05:11:08.651Z,6.82
2023-11-21T05:13:36.191Z,5.10
2023-11-21T05:16:05.819Z,6.32
2023-11-21T05:18:33.043Z,6.13
2023-11-21T05:21:00.239Z,6.85
2023-11-21T05:23:27.348Z,6.35
2023-11-21T05:25:54.465Z,6.03
2023-11-21T05:28:21.609Z,5.65
2023-11-21T05:30:49.106Z,5.60
2023-11-21T05:33:16.302Z,6.20
2023-11-21T05:35:43.400Z,5.95
2023-11-21T05:38:10.781Z,5.72
2023-11-21T05:40:38.485Z,5.90
2023-11-21T05:43:06.684Z,6.75
2023-11-21T05:45:33.932Z,6.95
2023-11-21T05:48:01.242Z,7.00
2023-11-21T05:50:28.365Z,6.28
2023-11-21T05:52:55.593Z,7.88
2023-11-21T05:55:27.210Z,7.18
2023-11-21T05:57:54.952Z,7.03
2023-11-21T06:00:26.699Z,8.57
2023-11-21T06:02:58.773Z,7.93
2023-11-21T06:05:27.488Z,6.47
2023-11-21T06:08:00.555Z,6.55
2023-11-21T06:10:30.172Z,7.15
2023-11-21T06:13:01.563Z,7.70
2023-11-21T06:15:31.142Z,7.38
2023-11-21T06:17:58.702Z,7.25
2023-11-21T06:20:25.868Z,8.38
2023-11-21T06:22:53.349Z,7.07
2023-11-21T06:25:21.378Z,7.30
2023-11-21T06:27:49.644Z,7.22
2023-11-21T06:30:17.467Z,7.88
2023-11-21T06:32:48.002Z,7.45
2023-11-21T06:35:17.867Z,7.38
2023-11-21T06:37:49.955Z,7.75
2023-11-21T06:40:22.539Z,6.07
2023-11-21T06:42:50.256Z,8.00
2023-11-21T06:45:18.254Z,8.25
2023-11-21T06:47:48.961Z,7.60
2023-11-21T06:50:16.443Z,8.63
2023-11-21T06:52:47.215Z,7.28
2023-11-21T06:55:14.471Z,8.82
2023-11-21T06:57:41.610Z,8.20
2023-11-21T07:00:12.700Z,8.52
2023-11-21T07:02:40.538Z,7.93
2023-11-21T07:05:08.178Z,7.80
2023-11-21T07:07:37.266Z,7.55
2023-11-21T07:10:05.535Z,7.25
2023-11-21T07:12:32.760Z,7.38
2023-11-21T07:14:59.915Z,7.70
2023-11-21T07:17:27.229Z,8.02
2023-11-21T07:19:54.391Z,7.30
2023-11-21T07:22:23.074Z,7.28
2023-11-21T07:24:53.825Z,7.85
2023-11-21T07:27:20.996Z,8.18
2023-11-21T07:29:49.763Z,7.53
2023-11-21T07:32:17.484Z,9.43
2023-11-21T07:34:44.833Z,9.10
2023-11-21T07:37:12.024Z,8.88
2023-11-21T07:39:43.562Z,9.10
2023-11-21T07:42:12.223Z,8.38
2023-11-21T07:44:39.332Z,8.88
2023-11-21T07:47:06.648Z,8.18
2023-11-21T07:49:33.962Z,7.97
2023-11-21T07:52:02.208Z,8.13
2023-11-21T07:54:29.356Z,8.35
2023-11-21T07:56:56.543Z,8.48
2023-11-21T07:59:23.758Z,7.85
2023-11-21T08:01:51.429Z,7.03
2023-11-21T08:04:20.285Z,7.45
2023-11-21T08:06:47.439Z,7.15
2023-11-21T08:09:14.749Z,7.55
2023-11-21T08:11:41.889Z,6.88
2023-11-21T08:14:09.089Z,6.88
2023-11-21T08:16:36.446Z,7.90
2023-11-21T08:19:04.485Z,6.20
2023-11-21T08:21:32.589Z,7.90
2023-11-21T08:23:59.752Z,6.38
2023-11-21T08:26:26.834Z,6.20
2023-11-21T08:28:54.180Z,8.57
2023-11-21T08:31:26.886Z,7.45
2023-11-21T08:33:57.059Z,8.52
2023-11-21T08:36:25.596Z,7.65
2023-11-21T08:38:56.010Z,7.03
2023-11-21T08:41:23.486Z,8.25
2023-11-21T08:43:55.310Z,8.95
2023-11-21T08:46:22.684Z,7.55
2023-11-21T08:48:49.819Z,7.80
2023-11-21T08:51:17.278Z,6.18
2023-11-21T08:53:44.948Z,6.78
2023-11-21T08:56:15.734Z,7.55
2023-11-21T08:58:43.226Z,7.07
2023-11-21T09:01:10.498Z,6.68
2023-11-21T09:03:37.907Z,6.80
2023-11-21T09:06:05.854Z,7.63
2023-11-21T09:08:33.333Z,6.63
2023-11-21T09:11:00.592Z,8.02
2023-11-21T09:13:28.034Z,6.57
2023-11-21T09:15:55.161Z,7.25
2023-11-21T09:18:22.495Z,7.13
2023-11-21T09:20:49.771Z,7.68
2023-11-21T09:23:17.187Z,6.65
2023-11-21T09:25:47.731Z,5.10
2023-11-21T09:28:15.044Z,6.63
2023-11-21T09:30:42.359Z,5.80
2023-11-21T09:33:12.448Z,7.97
2023-11-21T09:35:39.961Z,7.82
2023-11-21T09:38:11.553Z,5.93
2023-11-21T09:40:39.170Z,7.05
2023-11-21T09:43:33.305Z,8.02
2023-11-21T09:46:03.660Z,5.57
2023-11-21T09:48:32.233Z,6.32
2023-11-21T09:51:01.229Z,6.60
2023-11-21T09:53:31.292Z,6.57
2023-11-21T09:55:58.464Z,5.85
2023-11-21T09:58:26.652Z,6.07
2023-11-21T10:00:59.258Z,7.03
2023-11-21T10:03:26.579Z,7.10
2023-11-21T10:05:54.993Z,7.20
2023-11-21T10:08:25.316Z,6.80
2023-11-21T10:10:54.934Z,7.00
2023-11-21T10:13:22.557Z,6.70
2023-11-21T10:15:51.577Z,6.38
2023-11-21T10:18:18.989Z,8.48
2023-11-21T10:20:54.261Z,7.40
2023-11-21T10:23:24.496Z,7.97
2023-11-21T10:25:54.218Z,8.30
2023-11-21T10:28:22.773Z,8.38
2023-11-21T10:30:50.320Z,7.22
2023-11-21T10:33:18.229Z,10.13
2023-11-21T10:35:52.744Z,9.63
2023-11-21T10:38:24.209Z,9.68
2023-11-21T10:40:52.227Z,9.50
2023-11-21T10:43:20.073Z,8.55
2023-11-21T10:45:47.804Z,8.82
2023-11-21T10:48:18.869Z,10.27
2023-11-21T10:50:48.644Z,8.13
2023-11-21T10:53:16.673Z,7.88
2023-11-21T10:55:46.140Z,7.95
2023-11-21T10:58:15.920Z,8.05
2023-11-21T11:00:46.876Z,8.00
2023-11-21T11:03:17.396Z,10.18
2023-11-21T11:05:56.014Z,8.55
2023-11-21T11:08:28.650Z,8.32
2023-11-21T11:10:57.729Z,9.18
2023-11-21T11:13:25.894Z,8.82
2023-11-21T11:16:02.062Z,9.30
2023-11-21T11:18:31.003Z,8.38
2023-11-21T11:21:22.218Z,8.13
2023-11-21T11:24:09.528Z,6.88
2023-11-21T11:27:03.205Z,6.80
2023-11-21T11:29:36.928Z,7.68
2023-11-21T11:32:22.946Z,6.65
2023-11-21T11:34:59.918Z,7.28
2023-11-21T11:37:28.683Z,6.82
2023-11-21T11:39:56.126Z,6.32
2023-11-21T11:42:25.048Z,8.88
2023-11-21T11:44:54.421Z,6.35
2023-11-21T11:47:35.333Z,8.05
2023-11-21T11:50:21.380Z,7.97
2023-11-21T11:52:54.488Z,6.55
2023-11-21T11:55:26.155Z,6.22
2023-11-21T11:58:00.302Z,7.20
2023-11-21T12:00:27.795Z,6.55
2023-11-21T12:02:58.374Z,7.57
2023-11-21T12:05:29.352Z,8.00
2023-11-21T12:07:58.899Z,7.47
2023-11-21T12:10:30.195Z,6.95
2023-11-21T12:13:02.730Z,7.03
2023-11-21T12:18:00.633Z,6.53
2023-11-21T12:20:29.107Z,4.93
2023-11-21T12:23:00.735Z,4.72
2023-11-21T12:25:35.490Z,5.30
2023-11-21T12:28:04.531Z,6.32
2023-11-21T12:30:33.579Z,5.72
2023-11-21T12:33:05.384Z,5.90
2023-11-21T12:35:35.567Z,5.35
2023-11-21T12:38:04.728Z,5.22
2023-11-21T12:40:31.960Z,5.63
2023-11-21T12:43:01.986Z,7.75
2023-11-21T12:45:30.848Z,7.05
2023-11-21T12:48:01.766Z,7.32
2023-11-21T12:50:30.554Z,7.38
2023-11-21T12:53:06.784Z,6.25
2023-11-21T12:55:39.134Z,6.45
2023-11-21T13:00:44.148Z,6.10
2023-11-21T13:03:14.434Z,6.43
2023-11-21T13:05:52.825Z,7.20
2023-11-21T13:08:24.301Z,6.85
2023-11-21T13:10:58.541Z,6.63
2023-11-21T13:13:29.851Z,7.88
2023-11-21T13:16:02.738Z,8.60
2023-11-21T13:18:30.478Z,8.95
2023-11-21T13:21:16.856Z,6.75
2023-11-21T13:23:44.452Z,8.02
2023-11-21T13:26:11.788Z,9.23
2023-11-21T13:28:39.538Z,8.43
2023-11-21T13:31:27.997Z,7.00
2023-11-21T13:34:05.787Z,7.38
2023-11-21T13:36:37.858Z,7.95
2023-11-21T13:39:17.176Z,7.53
2023-11-21T13:41:45.075Z,7.70
2023-11-21T13:44:28.306Z,7.65
2023-11-21T13:46:58.458Z,6.30
2023-11-21T13:49:26.854Z,6.70
2023-11-21T13:51:56.727Z,6.47
2023-11-21T13:54:26.566Z,7.03
2023-11-21T13:56:53.937Z,7.13
2023-11-21T13:59:24.651Z,7.68
2023-11-21T14:02:01.391Z,6.78
2023-11-21T14:04:31.907Z,7.82
2023-11-21T14:07:02.549Z,8.23
2023-11-21T14:09:45.509Z,7.35
2023-11-21T14:12:17.050Z,6.60
2023-11-21T14:14:45.669Z,8.70
2023-11-21T14:17:13.011Z,6.85
2023-11-21T14:19:45.151Z,6.65
2023-11-21T14:22:12.795Z,6.68
2023-11-21T14:24:45.353Z,5.82
2023-11-21T14:29:43.786Z,5.95
2023-11-21T14:32:11.468Z,4.63
2023-11-21T14:34:39.669Z,6.10
2023-11-21T14:37:06.872Z,5.43
2023-11-21T14:39:39.201Z,5.18
2023-11-21T14:42:09.223Z,4.40
2023-11-21T14:44:40.140Z,4.53
2023-11-21T14:47:16.002Z,3.55
2023-11-21T14:49:54.549Z,4.70
2023-11-21T14:52:36.609Z,4.53
2023-11-21T14:55:30.281Z,4.70
2023-11-21T14:57:57.471Z,6.43
2023-11-21T15:00:43.558Z,6.15
2023-11-21T15:03:11.452Z,7.13
2023-11-21T15:05:40.466Z,7.45
2023-11-21T15:08:33.743Z,7.60
2023-11-21T15:11:00.926Z,9.65
2023-11-21T15:13:32.875Z,10.52
2023-11-21T15:16:09.066Z,10.20
2023-11-21T15:18:36.957Z,9.32
2023-11-21T15:21:06.818Z,9.77
2023-11-21T15:23:36.310Z,10.40
2023-11-21T15:26:06.288Z,10.02
2023-11-21T15:28:34.484Z,10.32
2023-11-21T15:31:04.022Z,10.32
2023-11-21T15:33:31.854Z,11.40
2023-11-21T15:35:59.458Z,11.93
2023-11-21T15:38:26.531Z,11.85
2023-11-21T15:40:53.853Z,11.48
2023-11-21T15:43:21.348Z,11.48
2023-11-21T15:45:48.462Z,11.25
2023-11-21T15:48:17.771Z,10.55
2023-11-21T15:50:45.146Z,9.27
2023-11-21T15:53:13.253Z,9.43
2023-11-21T15:55:44.055Z,8.45
2023-11-21T15:58:11.309Z,7.60
2023-11-21T16:00:38.735Z,8.80
2023-11-21T16:03:06.043Z,8.30
2023-11-21T16:05:33.420Z,7.63
2023-11-21T16:08:00.589Z,7.93
2023-11-21T16:10:27.920Z,8.20
2023-11-21T16:12:55.200Z,7.78
2023-11-21T16:15:23.946Z,7.38
2023-11-21T16:17:51.265Z,7.80
2023-11-21T16:20:18.779Z,7.47
2023-11-21T16:22:46.682Z,6.50
2023-11-21T16:25:15.383Z,7.90
2023-11-21T16:27:43.686Z,7.82
2023-11-21T16:30:11.436Z,7.78
2023-11-21T16:32:38.976Z,7.00
2023-11-21T16:35:07.055Z,6.22
2023-11-21T16:37:34.266Z,6.72
2023-11-21T16:40:01.572Z,7.22
2023-11-21T16:42:29.634Z,6.88
2023-11-21T16:44:56.816Z,6.85
2023-11-21T16:47:24.962Z,7.72
2023-11-21T16:49:52.773Z,6.57
2023-11-21T16:52:24.095Z,6.90
2023-11-21T16:54:52.364Z,7.38
2023-11-21T16:57:19.654Z,6.60
2023-11-21T16:59:51.816Z,7.25
2023-11-21T17:02:22.183Z,7.35
2023-11-21T17:04:51.253Z,6.95
2023-11-21T17:07:22.117Z,7.50
2023-11-21T17:09:49.432Z,7.30
2023-11-21T17:12:17.069Z,7.45
2023-11-21T17:14:44.725Z,8.40
2023-11-21T17:17:14.980Z,7.72
2023-11-21T17:19:45.103Z,7.25
2023-11-21T17:22:13.005Z,7.90
2023-11-21T17:24:40.290Z,8.30
2023-11-21T17:27:07.811Z,6.78
2023-11-21T17:29:36.404Z,7.85
2023-11-21T17:32:06.149Z,8.52
2023-11-21T17:34:33.560Z,8.52
2023-11-21T17:37:01.717Z,7.95
2023-11-21T17:39:28.898Z,8.10
2023-11-21T17:41:56.170Z,9.15
2023-11-21T17:44:23.277Z,8.13
2023-11-21T17:46:51.454Z,7.70
2023-11-21T17:49:19.466Z,8.32
2023-11-21T17:51:46.669Z,8.80
2023-11-21T17:54:13.842Z,9.65
2023-11-21T17:56:41.044Z,9.70
2023-11-21T17:59:09.161Z,9.65
2023-11-21T18:01:39.058Z,8.75
2023-11-21T18:04:07.861Z,8.50
2023-11-21T18:06:35.083Z,7.10
2023-11-21T18:09:04.799Z,8.85
2023-11-21T18:11:32.480Z,7.70
2023-11-21T18:13:59.772Z,8.32
2023-11-21T18:16:27.533Z,8.88
2023-11-21T18:18:54.816Z,8.98
2023-11-21T18:21:22.100Z,9.02
2023-11-21T18:23:49.371Z,9.40
2023-11-21T18:26:19.484Z,9.02
2023-11-21T18:28:47.053Z,10.18
2023-11-21T18:31:16.373Z,10.02
2023-11-21T18:33:45.094Z,10.20
2023-11-21T18:36:12.399Z,9.38
2023-11-21T18:38:40.023Z,9.68
2023-11-21T18:41:07.339Z,8.18
2023-11-21T18:43:34.673Z,8.15
2023-11-21T18:46:04.981Z,8.65
2023-11-21T18:48:32.265Z,7.97
2023-11-21T18:50:59.428Z,10.25
2023-11-21T18:53:29.612Z,10.40
2023-11-21T18:55:58.099Z,8.90
2023-11-21T18:58:25.359Z,8.40
2023-11-21T19:00:52.562Z,9.73
2023-11-21T19:03:20.379Z,9.82
2023-11-21T19:05:47.794Z,7.85
2023-11-21T19:08:15.199Z,9.02
2023-11-21T19:10:43.237Z,8.68
2023-11-21T19:13:10.600Z,8.30
2023-11-21T19:15:37.857Z,8.02
2023-11-21T19:18:05.244Z,7.70
2023-11-21T19:20:33.707Z,9.00
2023-11-21T19:23:01.095Z,8.65
2023-11-21T19:25:28.271Z,8.13
2023-11-21T19:27:55.666Z,7.88
2023-11-21T19:30:22.994Z,7.95
2023-11-21T19:32:50.392Z,8.68
2023-11-21T19:35:18.071Z,10.23
2023-11-21T19:37:45.284Z,10.30
2023-11-21T19:40:13.647Z,9.95
2023-11-21T19:42:41.347Z,9.85
2023-11-21T19:45:09.638Z,11.35
2023-11-21T19:47:40.540Z,10.45
2023-11-21T19:50:11.595Z,9.40
2023-11-21T19:52:39.049Z,9.80
2023-11-21T19:55:06.601Z,9.50
2023-11-21T19:57:34.574Z,10.23
2023-11-21T20:00:01.745Z,9.85
2023-11-21T20:02:35.271Z,9.18
2023-11-21T20:05:02.667Z,9.57
2023-11-21T20:07:33.301Z,9.68
2023-11-21T20:10:01.119Z,8.82
2023-11-21T20:12:28.481Z,9.93
2023-11-21T20:14:55.694Z,10.10
2023-11-21T20:17:23.251Z,10.15
2023-11-21T20:19:50.466Z,10.50
2023-11-21T20:22:19.831Z,8.82
2023-11-21T20:24:48.461Z,9.52
2023-11-21T20:27:18.881Z,9.57
2023-11-21T20:29:46.011Z,9.60
2023-11-21T20:32:13.208Z,10.73
2023-11-21T20:34:41.158Z,9.40
2023-11-21T20:37:08.408Z,9.98
2023-11-21T20:39:37.578Z,10.27
2023-11-21T20:42:05.344Z,8.88
2023-11-21T20:44:32.501Z,9.15
2023-11-21T20:47:07.190Z,10.30
2023-11-21T20:49:44.992Z,8.95
2023-11-21T20:52:15.385Z,9.23
2023-11-21T20:54:42.633Z,9.75
2023-11-21T20:57:11.214Z,9.10
2023-11-21T20:59:38.521Z,9.75
2023-11-21T21:02:06.071Z,11.55
2023-11-21T21:04:33.921Z,10.48
2023-11-21T21:07:01.096Z,10.18
2023-11-21T21:09:28.282Z,10.30
2023-11-21T21:11:55.768Z,9.75
2023-11-21T21:14:25.168Z,9.68
2023-11-21T21:16:52.373Z,9.98
2023-11-21T21:19:19.797Z,9.00
2023-11-21T21:21:47.182Z,9.02
2023-11-21T21:24:14.434Z,8.77
2023-11-21T21:26:41.660Z,9.43
2023-11-21T21:29:10.048Z,9.65
2023-11-21T21:31:37.601Z,9.30
2023-11-21T21:34:05.242Z,8.60
2023-11-21T21:36:35.261Z,9.52
2023-11-21T21:39:02.528Z,10.52
2023-11-21T21:41:30.972Z,10.48
2023-11-21T21:43:59.641Z,11.48
2023-11-21T21:46:26.750Z,10.40
2023-11-21T21:48:53.876Z,9.75
2023-11-21T21:51:21.058Z,11.75
2023-11-21T21:53:48.196Z,10.90
2023-11-21T21:56:20.805Z,12.10
2023-11-21T22:01:15.839Z,11.52
2023-11-21T22:03:43.191Z,9.90
2023-11-21T22:06:10.676Z,9.20
2023-11-21T22:08:37.773Z,9.40
2023-11-21T22:11:05.819Z,9.65
2023-11-21T22:13:32.947Z,8.52
2023-11-21T22:16:00.220Z,9.10
2023-11-21T22:18:27.445Z,8.45
2023-11-21T22:20:54.683Z,8.70
2023-11-21T22:23:22.157Z,7.93
2023-11-21T22:25:49.373Z,8.60
2023-11-21T22:28:16.553Z,8.32
2023-11-21T22:30:43.671Z,7.80
2023-11-21T22:33:10.857Z,8.07
2023-11-21T22:35:39.997Z,9.18
2023-11-21T22:38:07.181Z,8.55
2023-11-21T22:40:34.284Z,8.45
2023-11-21T22:43:01.474Z,8.45
2023-11-21T22:45:29.668Z,7.68
2023-11-21T22:47:57.126Z,7.68
2023-11-21T22:50:24.423Z,8.35
2023-11-21T22:52:54.064Z,8.20
2023-11-21T22:55:21.130Z,8.75
2023-11-21T22:57:48.289Z,9.40
2023-11-21T23:00:16.149Z,9.18
2023-11-21T23:02:43.705Z,9.25
2023-11-21T23:05:11.563Z,8.07
2023-11-21T23:07:38.925Z,8.52
2023-11-21T23:10:08.974Z,9.90
2023-11-21T23:12:36.954Z,7.82
2023-11-21T23:15:04.536Z,7.47
2023-11-21T23:17:33.193Z,8.45
2023-11-21T23:20:00.603Z,7.97
2023-11-21T23:22:28.796Z,7.03
2023-11-21T23:24:56.019Z,7.63
2023-11-21T23:27:23.134Z,9.25
2023-11-21T23:29:54.919Z,8.70
2023-11-21T23:32:23.976Z,8.67
2023-11-21T23:34:51.246Z,8.90
2023-11-21T23:37:18.474Z,10.77
2023-11-21T23:39:45.637Z,9.85
2023-11-21T23:42:12.712Z,10.93
2023-11-21T23:44:39.855Z,9.55
2023-11-21T23:47:07.100Z,11.70
2023-11-21T23:49:36.576Z,11.05
2023-11-21T23:52:04.322Z,10.57
2023-11-21T23:54:31.468Z,10.52
2023-11-21T23:56:59.310Z,10.90
2023-11-21T23:59:26.599Z,11.75
